Time;durP1;ratioP1;P1;durP2;ratioP2;P2;SDS_P1;SDS_P2;PMS_P1;PMS_P2;Temp;Humidity;BMP_temperature;BMP_pressure;BME280_temperature;BME280_humidity;BME280_pressure;Samples;Min_cycle;Max_cycle;Signal;HPM_P1;HPM_P2
2023/07/10 00:00:24;;;;;;;1.40;1.30;;;22.40;65.70;;;;;;5093965;28;20025;-74
2023/07/10 00:02:50;;;;;;;1.25;1.15;;;22.40;65.80;;;;;;5094692;28;20104;-74
2023/07/10 00:05:18;;;;;;;1.58;1.48;;;22.40;65.90;;;;;;5086376;28;20052;-75
2023/07/10 00:07:45;;;;;;;1.48;1.38;;;22.40;65.90;;;;;;5075900;28;20087;-75
2023/07/10 00:10:13;;;;;;;1.40;1.30;;;22.40;65.90;;;;;;5076058;28;20033;-77
2023/07/10 00:12:40;;;;;;;1.20;1.17;;;22.40;65.90;;;;;;5067655;28;20017;-75
2023/07/10 00:15:13;;;;;;;1.70;1.60;;;22.30;65.90;;;;;;5054666;28;20393;-76
2023/07/10 00:17:39;;;;;;;2.13;1.92;;;22.30;66.10;;;;;;5064605;28;20028;-75
2023/07/10 00:20:13;;;;;;;1.65;1.55;;;22.30;66.30;;;;;;5075858;28;20024;-76
2023/07/10 00:22:39;;;;;;;2.15;2.05;;;22.20;66.40;;;;;;5076209;28;20040;-75
2023/07/10 00:25:05;;;;;;;1.88;1.67;;;22.20;66.70;;;;;;5076479;28;20028;-76
2023/07/10 00:27:31;;;;;;;1.95;1.85;;;22.10;66.90;;;;;;5077003;28;20063;-75
2023/07/10 00:29:57;;;;;;;1.92;1.77;;;22.10;67.10;;;;;;5075570;28;20025;-75
2023/07/10 00:32:23;;;;;;;1.70;1.60;;;22.00;67.10;;;;;;5075249;28;20040;-75
2023/07/10 00:34:49;;;;;;;2.30;2.10;;;22.00;67.30;;;;;;5075949;28;20029;-75
2023/07/10 00:37:14;;;;;;;2.28;2.08;;;22.00;67.50;;;;;;5073879;28;20052;-74
2023/07/10 00:39:40;;;;;;;2.05;1.88;;;21.90;67.50;;;;;;5070210;28;20358;-75
2023/07/10 00:42:17;;;;;;;2.92;2.20;;;21.90;67.50;;;;;;5069937;28;20468;-74
2023/07/10 00:44:48;;;;;;;2.03;1.92;;;21.90;67.50;;;;;;5072108;28;20024;-74
2023/07/10 00:47:34;;;;;;;2.40;2.20;;;21.90;67.60;;;;;;5074375;28;20102;-74
2023/07/10 00:50:08;;;;;;;1.85;1.70;;;21.90;67.70;;;;;;5073924;28;20074;-75
2023/07/10 00:52:41;;;;;;;1.95;1.80;;;21.80;67.90;;;;;;5065812;28;20382;-75
2023/07/10 00:55:43;;;;;;;2.28;2.08;;;21.80;68.10;;;;;;5074440;28;20482;-75
2023/07/10 00:58:18;;;;;;;;;;;21.80;68.20;;;;;;5053896;28;20032;-74
2023/07/10 01:01:04;;;;;;;1.95;1.83;;;21.70;68.40;;;;;;5055484;28;19912;-76
2023/07/10 01:03:32;;;;;;;2.15;1.90;;;21.70;68.40;;;;;;5063691;28;20113;-75
2023/07/10 01:06:04;;;;;;;2.08;1.98;;;21.70;68.50;;;;;;5073155;28;20021;-75
2023/07/10 01:08:30;;;;;;;;;;;21.70;68.50;;;;;;5078336;28;20035;-75
2023/07/10 01:10:56;;;;;;;2.88;2.05;;;21.70;68.70;;;;;;5077210;28;19909;-75
2023/07/10 01:13:22;;;;;;;2.33;2.13;;;21.60;68.80;;;;;;5078059;28;20029;-75
2023/07/10 01:15:48;;;;;;;2.60;2.30;;;21.60;68.80;;;;;;5077932;28;20409;-75
2023/07/10 01:18:15;;;;;;;2.60;2.40;;;21.60;69.00;;;;;;5079010;28;20070;-75
2023/07/10 01:20:48;;;;;;;2.15;1.98;;;21.50;69.10;;;;;;5077712;28;20127;-74
2023/07/10 01:23:16;;;;;;;1.88;1.75;;;21.50;69.30;;;;;;5063726;28;20104;-74
2023/07/10 01:25:57;;;;;;;1.92;1.83;;;21.40;69.60;;;;;;5059436;28;20104;-75
2023/07/10 01:28:23;;;;;;;2.60;2.40;;;21.40;69.80;;;;;;5075550;28;20064;-75
2023/07/10 01:30:52;;;;;;;2.97;2.40;;;21.40;70.00;;;;;;5077234;28;20028;-74
2023/07/10 01:33:27;;;;;;;2.20;2.00;;;21.40;70.30;;;;;;5077505;28;20028;-75
2023/07/10 01:35:57;;;;;;;2.40;2.20;;;21.30;70.40;;;;;;5075334;28;20060;-75
2023/07/10 01:38:43;;;;;;;2.08;1.83;;;21.30;70.60;;;;;;5077256;28;20024;-74
2023/07/10 01:41:29;;;;;;;2.25;2.05;;;21.20;70.90;;;;;;5073010;28;20036;-74
2023/07/10 01:43:55;;;;;;;2.28;2.08;;;21.10;71.10;;;;;;5075570;28;20040;-74
2023/07/10 01:46:24;;;;;;;1.90;1.80;;;21.10;71.50;;;;;;5077302;28;20100;-74
2023/07/10 01:48:54;;;;;;;2.20;2.00;;;21.00;71.70;;;;;;5078534;28;20027;-76
2023/07/10 01:51:21;;;;;;;2.63;2.33;;;21.00;71.90;;;;;;5076429;28;20416;-75
2023/07/10 01:53:47;;;;;;;2.20;2.00;;;21.00;72.10;;;;;;5077426;28;20457;-73
2023/07/10 01:56:16;;;;;;;2.40;2.20;;;20.90;72.10;;;;;;5076194;28;20032;-75
2023/07/10 01:58:42;;;;;;;3.05;2.55;;;20.90;72.20;;;;;;5075254;28;20044;-74
2023/07/10 02:01:09;;;;;;;2.45;2.25;;;20.90;72.30;;;;;;5076660;28;20044;-74
2023/07/10 02:03:34;;;;;;;2.53;2.33;;;20.90;72.20;;;;;;5077554;28;20028;-74
2023/07/10 02:06:00;;;;;;;2.75;2.05;;;20.90;72.40;;;;;;5075996;28;20128;-74
2023/07/10 02:08:25;;;;;;;2.30;2.10;;;20.80;72.40;;;;;;5075542;28;20055;-74
2023/07/10 02:10:52;;;;;;;2.25;2.05;;;20.80;72.60;;;;;;5076103;28;20489;-75
2023/07/10 02:13:17;;;;;;;2.42;2.22;;;20.80;72.70;;;;;;5076390;28;20017;-74
2023/07/10 02:15:43;;;;;;;2.92;2.40;;;20.80;72.70;;;;;;5076511;28;20020;-75
2023/07/10 02:18:08;;;;;;;2.78;2.45;;;20.80;72.60;;;;;;5075475;28;20496;-74
2023/07/10 02:20:34;;;;;;;2.67;2.47;;;20.80;72.70;;;;;;5076593;28;20107;-75
2023/07/10 02:23:00;;;;;;;2.38;2.17;;;20.80;72.80;;;;;;5075854;28;20088;-75
2023/07/10 02:25:25;;;;;;;2.38;2.15;;;20.80;72.80;;;;;;5080456;28;20040;-75
2023/07/10 02:27:51;;;;;;;1.98;1.88;;;20.80;72.90;;;;;;5076848;28;20055;-74
2023/07/10 02:30:17;;;;;;;2.30;2.10;;;20.80;72.90;;;;;;5068297;28;20046;-74
2023/07/10 02:32:43;;;;;;;2.30;2.10;;;20.80;72.80;;;;;;5076208;28;20025;-75
2023/07/10 02:35:09;;;;;;;2.05;1.90;;;20.80;72.80;;;;;;5076759;28;20116;-74
2023/07/10 02:37:35;;;;;;;1.90;1.80;;;20.80;72.80;;;;;;5075483;28;20024;-75
2023/07/10 02:40:01;;;;;;;1.92;1.83;;;20.80;72.80;;;;;;5073042;28;20035;-75
2023/07/10 02:42:27;;;;;;;1.80;1.70;;;20.80;72.80;;;;;;5075954;28;20043;-76
2023/07/10 02:44:52;;;;;;;1.60;1.50;;;20.80;72.80;;;;;;5065396;28;20116;-75
2023/07/10 02:47:18;;;;;;;1.70;1.60;;;20.80;72.70;;;;;;5057150;28;20052;-75
2023/07/10 02:49:44;;;;;;;1.80;1.70;;;20.80;72.70;;;;;;5057608;28;20025;-76
2023/07/10 02:52:10;;;;;;;1.88;1.67;;;20.90;72.80;;;;;;5059039;28;20342;-76
2023/07/10 02:54:35;;;;;;;1.83;1.73;;;20.90;72.80;;;;;;5075587;28;20051;-74
2023/07/10 02:57:01;;;;;;;1.50;1.40;;;20.80;73.00;;;;;;5083514;28;20037;-75
2023/07/10 02:59:28;;;;;;;1.70;1.60;;;20.80;73.10;;;;;;5093640;28;20032;-73
2023/07/10 03:01:54;;;;;;;1.60;1.50;;;20.80;73.20;;;;;;5095468;28;20029;-73
2023/07/10 03:04:20;;;;;;;1.55;1.45;;;20.80;73.20;;;;;;5094859;28;20039;-73
2023/07/10 03:06:49;;;;;;;1.50;1.40;;;20.80;73.10;;;;;;5095627;28;20039;-75
2023/07/10 03:09:16;;;;;;;1.63;1.52;;;20.80;72.90;;;;;;5094532;28;20012;-75
2023/07/10 03:11:41;;;;;;;1.25;1.15;;;20.80;73.10;;;;;;5075797;28;20021;-75
2023/07/10 03:14:07;;;;;;;2.13;1.98;;;20.80;73.30;;;;;;5067382;28;20123;-76
2023/07/10 03:16:33;;;;;;;2.47;2.08;;;20.80;73.50;;;;;;5073987;28;20033;-76
2023/07/10 03:18:58;;;;;;;1.88;1.70;;;20.70;73.70;;;;;;5065910;28;20029;-75
2023/07/10 03:21:25;;;;;;;1.55;1.45;;;20.70;73.90;;;;;;5070338;28;20071;-76
2023/07/10 03:23:51;;;;;;;1.98;1.85;;;20.60;74.10;;;;;;5062796;28;20037;-75
2023/07/10 03:26:17;;;;;;;2.28;1.80;;;20.60;74.30;;;;;;5073581;28;20417;-75
2023/07/10 03:28:43;;;;;;;1.98;1.88;;;20.50;74.60;;;;;;5073898;28;20021;-75
2023/07/10 03:31:09;;;;;;;1.58;1.48;;;20.50;74.70;;;;;;5074754;28;20456;-75
2023/07/10 03:33:35;;;;;;;1.17;1.17;;;20.50;74.70;;;;;;5063037;28;20025;-75
2023/07/10 03:36:03;;;;;;;1.83;1.65;;;20.50;74.80;;;;;;5061394;28;20425;-75
2023/07/10 03:38:29;;;;;;;1.85;1.75;;;20.50;74.60;;;;;;5055028;28;20040;-75
2023/07/10 03:40:57;;;;;;;1.42;1.33;;;20.60;74.40;;;;;;5069222;28;20392;-74
2023/07/10 03:43:23;;;;;;;1.67;1.58;;;20.60;74.30;;;;;;5072069;28;20431;-74
2023/07/10 03:45:49;;;;;;;1.50;1.40;;;20.60;74.00;;;;;;5072601;28;20028;-74
2023/07/10 03:48:15;;;;;;;1.63;1.52;;;20.60;73.90;;;;;;5072185;28;20025;-74
2023/07/10 03:50:41;;;;;;;2.92;1.73;;;20.60;73.70;;;;;;5072355;28;20040;-74
2023/07/10 03:53:07;;;;;;;1.92;1.80;;;20.70;73.80;;;;;;5071686;28;20028;-75
2023/07/10 03:55:32;;;;;;;2.08;1.88;;;20.70;73.60;;;;;;5069293;28;20024;-75
2023/07/10 03:57:58;;;;;;;1.98;1.88;;;20.80;73.60;;;;;;5072072;28;20500;-74
2023/07/10 04:00:24;;;;;;;4.10;2.05;;;20.90;73.30;;;;;;5072735;28;20101;-74
2023/07/10 04:02:49;;;;;;;1.80;1.70;;;21.00;73.00;;;;;;5073370;28;20031;-74
2023/07/10 04:05:15;;;;;;;2.28;2.08;;;21.00;72.70;;;;;;5072268;28;20028;-74
2023/07/10 04:07:41;;;;;;;2.28;2.10;;;21.10;72.40;;;;;;5073187;28;20031;-73
2023/07/10 04:10:07;;;;;;;1.80;1.70;;;21.20;72.10;;;;;;5067039;28;20374;-73
2023/07/10 04:12:33;;;;;;;2.35;1.70;;;21.20;71.80;;;;;;5072277;28;20216;-73
2023/07/10 04:14:58;;;;;;;2.40;2.10;;;21.30;71.60;;;;;;5072149;28;20016;-74
2023/07/10 04:17:24;;;;;;;2.10;1.77;;;21.40;71.30;;;;;;5073769;28;20483;-73
2023/07/10 04:19:49;;;;;;;2.47;2.10;;;21.50;71.00;;;;;;5072505;28;20029;-74
2023/07/10 04:22:15;;;;;;;2.17;1.98;;;21.60;70.70;;;;;;5073216;28;20039;-74
2023/07/10 04:24:41;;;;;;;2.00;1.90;;;21.70;70.60;;;;;;5069218;28;20071;-74
2023/07/10 04:27:08;;;;;;;1.80;1.67;;;21.90;70.20;;;;;;5060629;28;20403;-74
2023/07/10 04:29:34;;;;;;;2.13;1.92;;;21.90;69.80;;;;;;5056149;28;20540;-75
2023/07/10 04:32:00;;;;;;;1.95;1.80;;;22.00;69.60;;;;;;5055306;28;20040;-74
2023/07/10 04:34:26;;;;;;;1.70;1.60;;;;;;;;;;5054976;28;20029;-73
2023/07/10 04:36:52;;;;;;;2.20;2.00;;;;;;;;;;5064493;28;20029;-74
2023/07/10 04:39:18;;;;;;;2.45;2.25;;;;;;;;;;5072849;28;20029;-74
2023/07/10 04:41:44;;;;;;;2.25;2.13;;;;;;;;;;5086591;28;20028;-73
2023/07/10 04:44:11;;;;;;;2.50;1.90;;;;;;;;;;5072982;28;20043;-76
2023/07/10 04:46:37;;;;;;;2.30;2.10;;;;;;;;;;5073837;28;20504;-76
2023/07/10 04:49:03;;;;;;;2.55;2.33;;;;;;;;;;5078508;28;20020;-75
2023/07/10 04:51:29;;;;;;;2.40;2.20;;;;;;;;;;5077935;28;20029;-75
2023/07/10 04:53:56;;;;;;;2.53;2.33;;;;;;;;;;5075428;28;20024;-75
2023/07/10 04:56:22;;;;;;;2.22;1.88;;;;;;;;;;5077448;28;20028;-77
2023/07/10 04:58:48;;;;;;;2.70;2.50;;;;;;;;;;5077695;28;20595;-76
2023/07/10 05:01:15;;;;;;;2.45;2.25;;;;;;;;;;5079305;28;20088;-75
2023/07/10 05:03:41;;;;;;;2.58;2.38;;;;;;;;;;5078581;28;20355;-76
2023/07/10 05:06:07;;;;;;;2.30;2.10;;;;;;;;;;5075921;28;20123;-75
2023/07/10 05:08:33;;;;;;;2.20;2.00;;;;;;;;;;5069317;28;20028;-77
2023/07/10 05:10:59;;;;;;;2.47;2.25;;;;;;;;;;5071982;28;20100;-76
2023/07/10 05:13:27;;;;;;;2.13;2.03;;;;;;;;;;5076641;28;20025;-76
2023/07/10 05:15:54;;;;;;;2.20;2.00;;;;;;;;;;5076421;28;20031;-76
2023/07/10 05:18:20;;;;;;;3.10;2.50;;;;;;;;;;5077500;28;20074;-76
2023/07/10 05:20:47;;;;;;;3.17;2.42;;;;;;;;;;5076019;28;20024;-76
2023/07/10 05:23:13;;;;;;;2.00;1.90;;;;;;;;;;5078416;28;20032;-76
2023/07/10 05:25:39;;;;;;;2.13;2.03;;;;;;;;;;5075809;28;20032;-76
2023/07/10 05:28:06;;;;;;;1.90;1.80;;;;;;;;;;5076062;28;20016;-76
2023/07/10 05:30:31;;;;;;;1.67;1.58;;;25.20;62.20;;;;;;5071499;28;20134;-76
2023/07/10 05:32:57;;;;;;;1.88;1.77;;;26.00;60.50;;;;;;5072255;28;20017;-75
2023/07/10 05:35:23;;;;;;;2.40;2.20;;;26.80;58.40;;;;;;5055576;28;20112;-75
2023/07/10 05:37:49;;;;;;;2.33;2.13;;;27.60;57.30;;;;;;5058410;28;20025;-75
2023/07/10 05:40:15;;;;;;;2.00;1.90;;;;;;;;;;5075950;28;20024;-74
2023/07/10 05:42:42;;;;;;;1.70;1.60;;;29.50;52.20;;;;;;5067557;28;20535;-74
2023/07/10 05:45:08;;;;;;;2.13;1.70;;;29.40;52.70;;;;;;5068329;28;20493;-74
2023/07/10 05:47:34;;;;;;;1.90;1.80;;;29.60;51.40;;;;;;5059164;28;20851;-76
2023/07/10 05:49:59;;;;;;;2.70;2.30;;;29.50;51.10;;;;;;5057397;28;20021;-76
2023/07/10 05:52:25;;;;;;;2.38;2.17;;;29.00;51.30;;;;;;5056957;28;20017;-74
2023/07/10 05:54:52;;;;;;;2.30;2.20;;;28.60;52.20;;;;;;5056896;28;20036;-76
2023/07/10 05:57:18;;;;;;;1.95;1.85;;;28.30;52.60;;;;;;5057079;28;20080;-76
2023/07/10 05:59:43;;;;;;;2.15;1.92;;;27.90;53.10;;;;;;5057261;28;20497;-76
2023/07/10 06:02:12;;;;;;;2.50;2.30;;;27.40;54.10;;;;;;5057628;28;20029;-74
2023/07/10 06:04:39;;;;;;;2.13;2.03;;;27.10;54.90;;;;;;5064154;28;20319;-76
2023/07/10 06:07:05;;;;;;;2.22;2.03;;;27.10;55.30;;;;;;5065001;28;20108;-76
2023/07/10 06:09:31;;;;;;;1.98;1.88;;;27.30;55.40;;;;;;5064133;28;20086;-76
2023/07/10 06:11:57;;;;;;;2.38;2.22;;;27.70;54.70;;;;;;5082543;28;20076;-75
2023/07/10 06:14:23;;;;;;;2.08;1.98;;;28.30;53.70;;;;;;5085054;28;20020;-74
2023/07/10 06:16:48;;;;;;;1.98;1.80;;;28.80;53.10;;;;;;5084552;28;20048;-75
2023/07/10 06:19:15;;;;;;;2.55;2.35;;;29.20;52.00;;;;;;5083273;28;20028;-76
2023/07/10 06:21:41;;;;;;;2.47;2.30;;;29.10;51.80;;;;;;5078830;28;20084;-76
2023/07/10 06:24:07;;;;;;;2.72;2.53;;;29.10;52.00;;;;;;5075840;28;20064;-76
2023/07/10 06:26:32;;;;;;;2.67;2.47;;;29.20;52.60;;;;;;5073690;28;20078;-76
2023/07/10 06:28:58;;;;;;;2.10;2.00;;;29.40;51.90;;;;;;5075593;28;20032;-75
2023/07/10 06:31:23;;;;;;;2.85;2.65;;;30.00;51.40;;;;;;5075912;28;20370;-77
2023/07/10 06:33:50;;;;;;;2.63;2.50;;;30.30;50.60;;;;;;5075499;28;20116;-76
2023/07/10 06:36:16;;;;;;;2.78;2.58;;;30.20;50.40;;;;;;5075159;28;20036;-76
2023/07/10 06:38:41;;;;;;;2.50;2.30;;;30.30;51.00;;;;;;5075692;28;20025;-76
2023/07/10 06:41:07;;;;;;;5.53;3.55;;;30.60;50.50;;;;;;5066528;28;20037;-76
2023/07/10 06:43:34;;;;;;;5.22;3.13;;;31.00;49.10;;;;;;5073989;28;20032;-76
2023/07/10 06:45:59;;;;;;;4.70;3.47;;;30.90;49.20;;;;;;5074575;28;20468;-77
2023/07/10 06:48:25;;;;;;;4.38;3.38;;;30.80;48.80;;;;;;5077904;28;20296;-76
2023/07/10 06:50:52;;;;;;;3.00;2.65;;;30.60;49.20;;;;;;5074905;28;20025;-77
2023/07/10 06:53:19;;;;;;;3.08;2.88;;;30.30;49.70;;;;;;5075228;28;20525;-76
2023/07/10 06:55:44;;;;;;;2.80;2.60;;;30.40;49.60;;;;;;5075669;28;20028;-77
2023/07/10 06:58:12;;;;;;;2.88;2.67;;;30.30;49.10;;;;;;5073785;28;20036;-78
2023/07/10 07:00:38;;;;;;;2.70;2.50;;;30.40;49.40;;;;;;5076496;28;20020;-77
2023/07/10 07:03:04;;;;;;;2.80;2.60;;;31.10;48.80;;;;;;5079896;28;20032;-78
2023/07/10 07:05:30;;;;;;;3.80;3.10;;;32.30;47.00;;;;;;5078470;28;20051;-78
2023/07/10 07:07:55;;;;;;;5.80;3.42;;;33.40;45.00;;;;;;5080644;28;20086;-77
2023/07/10 07:10:21;;;;;;;6.70;4.22;;;34.40;43.20;;;;;;5078581;28;20036;-77
2023/07/10 07:12:47;;;;;;;6.85;3.78;;;35.10;42.10;;;;;;5077682;28;20112;-76
2023/07/10 07:15:14;;;;;;;5.00;4.03;;;35.50;41.10;;;;;;5079932;28;20031;-79
2023/07/10 07:17:40;;;;;;;7.13;3.70;;;35.70;41.60;;;;;;5078432;28;20028;-77
2023/07/10 07:20:07;;;;;;;3.47;3.17;;;35.80;40.10;;;;;;5075761;28;20043;-76
2023/07/10 07:22:33;;;;;;;7.13;5.38;;;35.40;40.10;;;;;;5074664;28;20056;-77
2023/07/10 07:24:58;;;;;;;6.30;5.43;;;34.30;40.60;;;;;;5074362;28;20084;-76
2023/07/10 07:27:24;;;;;;;10.13;5.97;;;32.70;41.80;;;;;;5075661;28;20017;-78
2023/07/10 07:29:51;;;;;;;8.07;5.25;;;31.50;43.50;;;;;;5076015;28;20031;-74
2023/07/10 07:32:18;;;;;;;6.30;4.88;;;30.50;45.10;;;;;;5073617;28;20017;-76
2023/07/10 07:34:47;;;;;;;7.05;4.20;;;29.90;46.20;;;;;;5073511;28;20021;-76
2023/07/10 07:37:13;;;;;;;7.38;4.30;;;29.50;46.80;;;;;;5075779;28;20053;-76
2023/07/10 07:39:38;;;;;;;4.07;3.67;;;29.30;47.60;;;;;;5073583;28;20044;-76
2023/07/10 07:42:04;;;;;;;5.03;3.88;;;29.30;48.10;;;;;;5073911;28;20036;-75
2023/07/10 07:44:30;;;;;;;5.35;4.40;;;29.50;48.10;;;;;;5073440;28;20025;-77
2023/07/10 07:46:57;;;;;;;7.13;4.28;;;29.50;48.30;;;;;;5073615;28;20504;-76
2023/07/10 07:49:24;;;;;;;9.75;4.72;;;29.50;48.30;;;;;;5073591;28;20021;-76
2023/07/10 07:51:51;;;;;;;5.40;3.92;;;29.20;48.80;;;;;;5073020;28;20421;-76
2023/07/10 07:54:17;;;;;;;8.20;4.45;;;28.80;49.80;;;;;;5074648;28;20043;-76
2023/07/10 07:56:42;;;;;;;8.07;4.55;;;28.50;50.60;;;;;;5074448;28;20453;-75
2023/07/10 07:59:08;;;;;;;6.85;4.18;;;28.30;51.00;;;;;;5075643;28;20081;-75
2023/07/10 08:01:34;;;;;;;12.38;5.10;;;28.20;51.30;;;;;;5074769;28;20092;-76
2023/07/10 08:04:00;;;;;;;6.45;4.25;;;;;;;;;;5074661;28;20031;-75
2023/07/10 08:06:31;;;;;;;5.57;4.20;;;27.90;51.30;;;;;;5073899;28;20610;-74
2023/07/10 08:08:58;;;;;;;8.95;4.20;;;27.90;52.00;;;;;;5073432;28;20016;-74
2023/07/10 08:11:24;;;;;;;6.63;5.13;;;27.80;52.30;;;;;;5064692;28;20048;-75
2023/07/10 08:13:50;;;;;;;11.93;4.68;;;27.70;52.60;;;;;;5073165;28;20036;-73
2023/07/10 08:16:16;;;;;;;5.13;4.28;;;27.60;52.90;;;;;;5071134;28;20432;-75
2023/07/10 08:18:42;;;;;;;6.90;3.95;;;27.60;52.80;;;;;;5072951;28;20052;-74
2023/07/10 08:21:11;;;;;;;8.75;4.68;;;27.60;52.90;;;;;;5072626;28;20433;-75
2023/07/10 08:23:36;;;;;;;7.68;4.50;;;27.60;53.00;;;;;;5072913;28;20032;-74
2023/07/10 08:26:03;;;;;;;7.18;4.53;;;27.50;53.30;;;;;;5072652;28;20033;-76
2023/07/10 08:28:29;;;;;;;6.68;4.38;;;27.50;53.40;;;;;;5072440;28;20024;-74
2023/07/10 08:30:55;;;;;;;9.70;4.82;;;27.50;53.70;;;;;;5060217;28;20075;-76
2023/07/10 08:33:21;;;;;;;7.60;4.75;;;27.50;53.70;;;;;;5056408;28;20143;-76
2023/07/10 08:36:05;;;;;;;8.40;4.88;;;27.30;53.90;;;;;;5059513;28;20128;-75
2023/07/10 08:38:32;;;;;;;10.43;4.55;;;27.20;54.40;;;;;;5063452;28;20497;-74
2023/07/10 08:41:01;;;;;;;7.15;4.60;;;27.00;54.80;;;;;;5067518;28;20039;-77
2023/07/10 08:43:31;;;;;;;7.50;4.07;;;26.80;55.40;;;;;;5069212;28;20545;-76
2023/07/10 08:46:14;;;;;;;6.35;3.90;;;26.70;55.80;;;;;;5071990;28;20040;-75
2023/07/10 08:48:49;;;;;;;6.05;4.10;;;26.40;56.40;;;;;;5080068;28;20017;-76
2023/07/10 08:51:37;;;;;;;10.25;4.70;;;26.30;57.00;;;;;;5075169;28;20028;-74
2023/07/10 08:54:03;;;;;;;10.40;4.05;;;;;;;;;;5068230;28;20037;-75
2023/07/10 08:56:38;;;;;;;7.10;4.18;;;25.90;59.20;;;;;;5073768;28;20056;-74
2023/07/10 08:59:13;;;;;;;7.28;4.53;;;25.70;61.40;;;;;;5073759;28;20025;-74
2023/07/10 09:01:44;;;;;;;6.78;3.90;;;25.40;63.30;;;;;;5072435;28;20036;-77
2023/07/10 09:04:16;;;;;;;4.88;3.67;;;25.00;65.40;;;;;;5072505;28;20101;-78
2023/07/10 09:06:47;;;;;;;9.88;4.53;;;24.80;66.40;;;;;;5073669;28;20431;-76
2023/07/10 09:09:40;;;;;;;5.03;3.60;;;24.50;67.20;;;;;;5075142;28;20037;-74
2023/07/10 09:12:33;;;;;;;5.72;4.03;;;24.30;67.90;;;;;;5069890;28;20045;-76
2023/07/10 09:15:05;;;;;;;5.88;4.00;;;24.20;68.60;;;;;;5078204;28;20052;-75
2023/07/10 09:17:54;;;;;;;4.30;3.70;;;24.10;69.20;;;;;;5081990;28;20028;-76
2023/07/10 09:20:24;;;;;;;5.88;3.83;;;24.00;70.10;;;;;;5080146;28;20028;-76
2023/07/10 09:22:56;;;;;;;4.63;3.38;;;24.00;70.90;;;;;;5081546;28;20020;-75
2023/07/10 09:25:23;;;;;;;3.53;2.90;;;23.90;71.60;;;;;;5076808;28;20127;-76
2023/07/10 09:27:49;;;;;;;3.60;3.10;;;23.70;72.60;;;;;;5074982;28;20017;-75
2023/07/10 09:30:34;;;;;;;3.55;3.05;;;23.60;73.90;;;;;;5078353;28;20052;-76
2023/07/10 09:33:03;;;;;;;3.08;2.60;;;23.40;75.40;;;;;;5063816;28;20032;-74
2023/07/10 09:35:29;;;;;;;3.50;3.10;;;23.30;76.30;;;;;;5075584;28;20078;-76
2023/07/10 09:37:55;;;;;;;2.95;2.65;;;23.20;77.10;;;;;;5075669;28;20028;-75
2023/07/10 09:40:36;;;;;;;3.47;2.97;;;23.10;78.30;;;;;;5072769;28;20036;-75
2023/07/10 09:43:04;;;;;;;2.90;2.65;;;23.00;79.70;;;;;;5068608;28;20036;-76
2023/07/10 09:45:36;;;;;;;4.25;3.05;;;23.00;80.00;;;;;;5076659;28;20043;-77
2023/07/10 09:48:10;;;;;;;3.15;2.88;;;23.00;80.60;;;;;;5075569;28;20032;-75
2023/07/10 09:50:36;;;;;;;3.10;2.72;;;23.00;81.20;;;;;;5074663;28;20100;-77
2023/07/10 09:53:02;;;;;;;3.00;2.70;;;23.00;81.80;;;;;;5074598;28;20469;-76
2023/07/10 09:55:27;;;;;;;3.10;2.72;;;23.00;82.30;;;;;;5074476;28;20032;-75
2023/07/10 09:57:58;;;;;;;3.15;2.80;;;23.20;82.80;;;;;;5075930;28;20441;-76
2023/07/10 10:00:26;;;;;;;3.22;2.92;;;23.30;82.80;;;;;;5075182;28;20166;-78
2023/07/10 10:02:54;;;;;;;2.95;2.67;;;23.50;83.10;;;;;;5075557;28;20020;-76
2023/07/10 10:05:20;;;;;;;2.78;2.58;;;23.80;82.90;;;;;;5077247;28;20051;-76
2023/07/10 10:07:54;;;;;;;2.33;2.08;;;;;;;;;;5076009;28;20567;-76
2023/07/10 10:10:30;;;;;;;4.07;3.13;;;;;;;;;;5074887;28;20032;-76
2023/07/10 10:13:01;;;;;;;4.95;3.33;;;;;;;;;;5074871;28;20024;-76
2023/07/10 10:15:27;;;;;;;;;;;;;;;;;;5073052;28;20028;-76
2023/07/10 10:17:55;;;;;;;3.83;3.40;;;;;;;;;;5075068;28;20286;-76
2023/07/10 10:20:26;;;;;;;4.97;3.80;;;;;;;;;;5075717;28;20390;-76
2023/07/10 10:22:52;;;;;;;6.07;4.10;;;;;;;;;;5075073;28;20354;-76
2023/07/10 10:25:23;;;;;;;4.43;3.60;;;;;;;;;;5075221;28;20032;-77
2023/07/10 10:27:56;;;;;;;3.47;2.90;;;;;;;;;;5074221;28;20040;-77
2023/07/10 10:30:25;;;;;;;4.03;3.25;;;;;;;;;;5082939;28;20040;-75
2023/07/10 10:33:21;;;;;;;3.03;2.78;;;26.80;73.80;;;;;;5062432;28;20024;-76
2023/07/10 10:36:01;;;;;;;2.65;2.45;;;26.80;74.10;;;;;;5073600;28;20033;-75
2023/07/10 10:38:35;;;;;;;2.95;2.65;;;27.30;72.30;;;;;;5066142;28;20355;-76
2023/07/10 10:41:08;;;;;;;4.13;2.80;;;27.60;71.10;;;;;;5073091;28;20385;-77
2023/07/10 10:43:41;;;;;;;2.80;2.60;;;28.00;70.00;;;;;;5074619;28;20521;-76
2023/07/10 10:46:22;;;;;;;3.47;2.75;;;28.30;68.50;;;;;;5066602;28;20032;-75
2023/07/10 10:48:56;;;;;;;2.70;2.50;;;28.50;67.70;;;;;;5074748;28;20043;-76
2023/07/10 10:51:58;;;;;;;5.57;3.88;;;28.70;67.10;;;;;;5077838;28;20443;-76
2023/07/10 10:54:51;;;;;;;6.28;4.00;;;28.80;65.50;;;;;;5034312;28;20047;-77
2023/07/10 10:57:34;;;;;;;5.85;4.40;;;28.70;65.60;;;;;;5074349;28;20036;-76
2023/07/10 11:00:18;;;;;;;6.15;4.50;;;28.80;65.80;;;;;;5074389;28;20588;-76
2023/07/10 11:02:54;;;;;;;5.43;4.15;;;28.90;65.90;;;;;;5074614;28;20099;-76
2023/07/10 11:05:34;;;;;;;5.60;4.93;;;28.90;66.10;;;;;;5073259;28;20092;-76
2023/07/10 11:08:08;;;;;;;4.70;4.10;;;29.10;66.30;;;;;;5075401;28;20012;-76
2023/07/10 11:10:37;;;;;;;4.70;4.13;;;29.20;65.40;;;;;;5075081;28;20074;-76
2023/07/10 11:13:05;;;;;;;5.47;3.70;;;29.20;64.50;;;;;;5073773;28;20078;-76
2023/07/10 11:15:33;;;;;;;7.30;3.97;;;29.30;63.90;;;;;;5072036;28;20020;-76
2023/07/10 11:17:59;;;;;;;4.88;4.25;;;29.30;62.70;;;;;;5076106;28;20024;-76
2023/07/10 11:20:27;;;;;;;4.85;4.10;;;29.30;62.90;;;;;;5072637;28;20405;-76
2023/07/10 11:22:59;;;;;;;4.65;4.15;;;29.40;62.80;;;;;;5075332;28;20048;-76
2023/07/10 11:25:35;;;;;;;3.85;3.50;;;29.50;62.60;;;;;;5073487;28;20029;-76
2023/07/10 11:28:20;;;;;;;4.38;3.97;;;29.70;61.90;;;;;;5054649;28;20058;-76
2023/07/10 11:30:46;;;;;;;4.93;4.22;;;29.90;60.00;;;;;;5054460;28;20462;-76
2023/07/10 11:33:21;;;;;;;4.95;4.10;;;30.00;59.40;;;;;;5058642;28;20040;-76
2023/07/10 11:36:09;;;;;;;6.25;4.35;;;30.10;58.50;;;;;;5076635;28;20056;-77
2023/07/10 11:38:35;;;;;;;4.38;3.97;;;30.30;58.00;;;;;;5074184;28;20058;-76
2023/07/10 11:41:29;;;;;;;7.22;4.07;;;30.50;56.90;;;;;;5071792;28;20032;-77
2023/07/10 11:44:13;;;;;;;5.38;4.05;;;30.80;56.30;;;;;;5072842;28;20384;-74
2023/07/10 11:47:01;;;;;;;5.05;3.80;;;30.90;55.20;;;;;;5074206;28;20035;-76
2023/07/10 11:49:51;;;;;;;4.22;3.90;;;31.20;54.50;;;;;;5065502;28;20024;-76
2023/07/10 11:52:16;;;;;;;6.38;4.10;;;31.60;54.00;;;;;;5067495;28;20024;-76
2023/07/10 11:54:48;;;;;;;4.63;4.10;;;32.00;52.00;;;;;;5073140;28;20074;-76
2023/07/10 11:57:22;;;;;;;5.50;3.97;;;32.00;52.30;;;;;;5073156;28;20031;-75
2023/07/10 11:59:52;;;;;;;6.45;4.30;;;32.10;51.10;;;;;;5073547;28;20024;-76
2023/07/10 12:02:26;;;;;;;4.70;3.95;;;31.80;51.50;;;;;;5075075;28;20031;-76
2023/07/10 12:04:52;;;;;;;4.75;3.88;;;31.60;52.10;;;;;;5081480;28;20035;-76
2023/07/10 12:07:18;;;;;;;4.88;4.15;;;31.60;51.90;;;;;;5079086;28;20397;-76
2023/07/10 12:09:54;;;;;;;6.18;4.00;;;31.50;51.30;;;;;;5076947;28;20020;-76
2023/07/10 12:12:19;;;;;;;7.10;3.78;;;31.50;51.90;;;;;;5071493;28;20029;-76
2023/07/10 12:14:45;;;;;;;4.28;3.60;;;31.70;51.70;;;;;;5075572;28;20039;-75
2023/07/10 12:17:16;;;;;;;3.78;3.47;;;31.90;50.80;;;;;;5070248;28;20031;-75
2023/07/10 12:19:43;;;;;;;4.07;3.70;;;31.90;50.20;;;;;;5071020;28;20094;-76
2023/07/10 12:22:20;;;;;;;4.65;3.63;;;31.90;49.90;;;;;;5069171;28;20021;-74
2023/07/10 12:24:52;;;;;;;6.43;3.72;;;32.00;50.30;;;;;;5073944;28;20029;-76
2023/07/10 12:27:18;;;;;;;4.28;3.28;;;32.00;48.80;;;;;;5090218;28;20120;-74
2023/07/10 12:29:53;;;;;;;4.53;2.97;;;31.90;48.50;;;;;;5081558;28;20073;-76
2023/07/10 12:32:21;;;;;;;3.17;2.88;;;31.90;46.90;;;;;;5065846;28;20070;-76
2023/07/10 12:34:46;;;;;;;3.40;3.10;;;31.80;47.40;;;;;;5073923;28;20723;-75
2023/07/10 12:37:14;;;;;;;4.15;3.30;;;31.90;47.90;;;;;;5072463;28;20048;-75
2023/07/10 12:39:42;;;;;;;3.15;2.85;;;32.00;48.10;;;;;;5074100;28;20060;-75
2023/07/10 12:42:37;;;;;;;5.15;2.83;;;32.10;47.50;;;;;;5072593;28;20413;-77
2023/07/10 12:45:10;;;;;;;3.00;2.80;;;32.10;46.50;;;;;;5072457;28;20036;-75
2023/07/10 12:47:36;;;;;;;2.90;2.70;;;32.30;47.10;;;;;;5076262;28;20412;-78
2023/07/10 12:50:03;;;;;;;3.60;3.30;;;32.50;46.40;;;;;;5076634;28;20024;-78
2023/07/10 12:52:36;;;;;;;4.95;3.47;;;32.70;46.20;;;;;;5067488;28;20025;-77
2023/07/10 12:55:05;;;;;;;5.95;3.75;;;32.90;46.30;;;;;;5054355;28;20021;-77
2023/07/10 12:57:34;;;;;;;5.15;3.20;;;32.90;46.10;;;;;;5057347;28;20082;-77
2023/07/10 13:00:08;;;;;;;4.93;3.58;;;33.00;45.80;;;;;;5057573;28;20085;-76
2023/07/10 13:02:39;;;;;;;4.07;3.67;;;32.90;45.90;;;;;;5061320;28;20020;-78
2023/07/10 13:05:28;;;;;;;4.53;3.30;;;32.80;46.40;;;;;;5067984;28;20386;-78
2023/07/10 13:07:57;;;;;;;5.63;3.42;;;32.80;47.10;;;;;;5080315;28;20024;-77
2023/07/10 13:10:39;;;;;;;5.32;3.50;;;32.60;47.00;;;;;;5080738;28;20045;-77